createdAt,value
2018-10-17T00:02:09.302Z,99.90
2018-10-17T00:04:37.643Z,99.90
2018-10-17T00:07:06.019Z,99.90
2018-10-17T00:09:34.390Z,99.90
2018-10-17T00:12:02.715Z,99.90
2018-10-17T00:14:31.166Z,99.90
2018-10-17T00:16:59.552Z,99.90
2018-10-17T00:19:27.884Z,99.90
2018-10-17T00:21:56.241Z,99.90
2018-10-17T00:24:24.605Z,99.90
2018-10-17T00:26:52.914Z,99.90
2018-10-17T00:29:21.262Z,99.90
2018-10-17T00:31:49.588Z,99.90
2018-10-17T00:34:17.920Z,99.90
2018-10-17T00:36:46.347Z,99.90
2018-10-17T00:39:14.710Z,99.90
2018-10-17T00:41:43.027Z,99.90
2018-10-17T00:44:11.397Z,99.90
2018-10-17T00:46:39.801Z,99.90
2018-10-17T00:49:08.212Z,99.90
2018-10-17T00:51:36.540Z,99.90
2018-10-17T00:54:05.051Z,99.90
2018-10-17T00:56:33.387Z,99.90
2018-10-17T00:59:09.125Z,99.90
2018-10-17T01:01:37.800Z,99.90
2018-10-17T01:04:06.350Z,99.90
2018-10-17T01:06:34.961Z,99.90
2018-10-17T01:09:07.877Z,99.90
2018-10-17T01:11:36.881Z,99.90
2018-10-17T01:14:05.466Z,99.90
2018-10-17T01:16:33.929Z,99.90
2018-10-17T01:19:02.841Z,99.90
2018-10-17T01:21:31.198Z,99.90
2018-10-17T01:23:59.635Z,99.90
2018-10-17T01:26:27.970Z,99.90
2018-10-17T01:28:56.330Z,99.90
2018-10-17T01:31:24.654Z,99.90
2018-10-17T01:33:52.997Z,99.90
2018-10-17T01:36:21.314Z,99.90
2018-10-17T01:38:49.737Z,99.90
2018-10-17T01:41:18.170Z,99.90
2018-10-17T01:43:46.437Z,99.90
2018-10-17T01:46:14.772Z,99.90
2018-10-17T01:48:43.110Z,99.90
2018-10-17T01:51:11.522Z,99.90
2018-10-17T01:53:39.992Z,99.90
2018-10-17T01:56:08.374Z,99.90
2018-10-17T01:58:36.706Z,99.90
2018-10-17T02:01:05.076Z,99.90
2018-10-17T02:03:33.449Z,99.90
2018-10-17T02:06:01.845Z,99.90
2018-10-17T02:08:30.197Z,99.90
2018-10-17T02:10:58.510Z,99.90
2018-10-17T02:13:26.879Z,99.90
2018-10-17T02:15:55.242Z,99.90
2018-10-17T02:18:23.563Z,99.90
2018-10-17T02:20:51.897Z,99.90
2018-10-17T02:23:20.209Z,99.90
2018-10-17T02:25:48.570Z,99.90
2018-10-17T02:28:16.942Z,99.90
2018-10-17T02:30:45.282Z,99.90
2018-10-17T02:33:13.633Z,99.90
2018-10-17T02:35:41.968Z,99.90
2018-10-17T02:38:10.665Z,99.90
2018-10-17T02:40:39.013Z,99.90
2018-10-17T02:43:07.394Z,99.90
2018-10-17T02:45:35.667Z,99.90
2018-10-17T02:48:04.043Z,99.90
2018-10-17T02:50:32.416Z,99.90
2018-10-17T02:53:00.823Z,99.90
2018-10-17T02:55:29.144Z,99.90
2018-10-17T02:57:57.476Z,99.90
2018-10-17T03:00:25.831Z,99.90
2018-10-17T03:02:54.192Z,99.90
2018-10-17T03:05:22.559Z,99.90
2018-10-17T03:07:50.893Z,99.90
2018-10-17T03:10:19.315Z,99.90
2018-10-17T03:12:47.653Z,99.90
2018-10-17T03:15:16.029Z,99.90
2018-10-17T03:17:44.427Z,99.90
2018-10-17T03:20:12.744Z,99.90
2018-10-17T03:22:41.082Z,99.90
2018-10-17T03:25:10.227Z,99.90
2018-10-17T03:27:38.523Z,99.90
2018-10-17T03:30:06.896Z,99.90
2018-10-17T03:32:35.305Z,99.90
2018-10-17T03:35:03.717Z,99.90
2018-10-17T03:37:32.015Z,99.90
2018-10-17T03:40:00.370Z,99.90
2018-10-17T03:42:28.708Z,99.90
2018-10-17T03:44:57.052Z,99.90
2018-10-17T03:47:25.464Z,99.90
2018-10-17T03:49:53.900Z,99.90
2018-10-17T03:52:22.256Z,99.90
2018-10-17T03:54:50.588Z,99.90
2018-10-17T03:57:18.926Z,99.90
2018-10-17T03:59:47.407Z,99.90
2018-10-17T04:02:15.794Z,99.90
2018-10-17T04:04:44.088Z,99.90
2018-10-17T04:07:12.549Z,99.90
2018-10-17T04:09:40.908Z,99.90
2018-10-17T04:12:09.278Z,99.90
2018-10-17T04:14:37.696Z,99.90
2018-10-17T04:17:06.128Z,99.90
2018-10-17T04:19:34.485Z,99.90
2018-10-17T04:22:02.893Z,99.90
2018-10-17T04:24:31.244Z,99.90
2018-10-17T04:26:59.685Z,99.90
2018-10-17T04:29:28.039Z,99.90
2018-10-17T04:31:56.403Z,99.90
2018-10-17T04:34:24.738Z,99.90
2018-10-17T04:36:53.115Z,99.90
2018-10-17T04:39:21.501Z,99.90
2018-10-17T04:41:49.836Z,99.90
2018-10-17T04:44:18.190Z,99.90
2018-10-17T04:46:46.577Z,99.90
2018-10-17T04:49:15.082Z,99.90
2018-10-17T04:51:43.387Z,99.90
2018-10-17T04:54:11.739Z,99.90
2018-10-17T04:56:40.076Z,99.90
2018-10-17T04:59:08.418Z,99.90
2018-10-17T05:01:36.791Z,99.90
2018-10-17T05:04:05.373Z,99.90
2018-10-17T05:06:33.803Z,99.90
2018-10-17T05:09:02.203Z,99.90
2018-10-17T05:11:30.612Z,99.90
2018-10-17T05:13:58.946Z,99.90
2018-10-17T05:16:27.284Z,99.90
2018-10-17T05:18:55.698Z,99.90
2018-10-17T05:21:24.016Z,99.90
2018-10-17T05:23:52.405Z,99.90
2018-10-17T05:26:20.753Z,99.90
2018-10-17T05:28:49.075Z,99.90
2018-10-17T05:31:17.513Z,99.90
2018-10-17T05:33:45.819Z,99.90
2018-10-17T05:36:14.253Z,99.90
2018-10-17T05:38:42.610Z,99.90
2018-10-17T05:41:11.026Z,99.90
2018-10-17T05:43:39.360Z,99.90
2018-10-17T05:46:07.693Z,99.90
2018-10-17T05:48:36.085Z,99.90
2018-10-17T05:51:04.423Z,99.90
2018-10-17T05:53:32.796Z,99.90
2018-10-17T05:56:01.116Z,99.90
2018-10-17T05:58:29.431Z,99.90
2018-10-17T06:00:57.790Z,99.90
2018-10-17T06:03:26.124Z,99.90
2018-10-17T06:05:54.472Z,99.90
2018-10-17T06:08:22.973Z,99.90
2018-10-17T06:10:51.323Z,99.90
2018-10-17T06:13:19.653Z,99.90
2018-10-17T06:15:47.970Z,99.90
2018-10-17T06:18:16.278Z,99.90
2018-10-17T06:20:44.633Z,99.90
2018-10-17T06:23:12.965Z,99.90
2018-10-17T06:25:41.302Z,99.90
2018-10-17T06:28:09.679Z,99.90
2018-10-17T06:30:38.121Z,99.90
2018-10-17T06:33:06.412Z,99.90
2018-10-17T06:35:34.739Z,99.90
2018-10-17T06:38:03.099Z,99.90
2018-10-17T06:40:31.556Z,99.90
2018-10-17T06:43:00.030Z,99.90
2018-10-17T06:45:28.347Z,99.90
2018-10-17T06:47:56.664Z,99.90
2018-10-17T06:50:25.584Z,99.90
2018-10-17T06:52:53.989Z,99.90
2018-10-17T06:55:22.302Z,99.90
2018-10-17T06:57:50.723Z,99.90
2018-10-17T07:00:19.170Z,99.90
2018-10-17T07:02:47.598Z,99.90
2018-10-17T07:05:16.130Z,99.90
2018-10-17T07:07:44.473Z,99.90
2018-10-17T07:10:12.811Z,99.90
2018-10-17T07:12:41.213Z,99.90
2018-10-17T07:15:09.597Z,99.90
2018-10-17T07:17:38.021Z,99.90
2018-10-17T07:20:07.249Z,99.90
2018-10-17T07:22:35.571Z,99.90
2018-10-17T07:25:04.207Z,99.90
2018-10-17T07:27:32.549Z,99.90
2018-10-17T07:30:00.958Z,99.90
2018-10-17T07:32:29.309Z,99.90
2018-10-17T07:34:57.701Z,99.90
2018-10-17T07:37:26.024Z,99.90
2018-10-17T07:39:54.368Z,99.90
2018-10-17T07:42:22.761Z,99.90
2018-10-17T07:44:51.141Z,99.90
2018-10-17T07:47:19.479Z,99.90
2018-10-17T07:49:47.945Z,99.90
2018-10-17T07:52:16.358Z,99.90
2018-10-17T07:54:44.724Z,99.90
2018-10-17T07:57:13.126Z,99.90
2018-10-17T07:59:41.529Z,99.90
2018-10-17T08:02:09.854Z,99.90
2018-10-17T08:04:38.235Z,99.90
2018-10-17T08:07:06.698Z,99.90
2018-10-17T08:09:35.012Z,99.90
2018-10-17T08:12:03.477Z,99.90
2018-10-17T08:14:31.778Z,99.90
2018-10-17T08:17:00.139Z,99.90
2018-10-17T08:19:28.519Z,99.90
2018-10-17T08:21:56.873Z,99.90
2018-10-17T08:24:25.236Z,99.90
2018-10-17T08:26:53.653Z,99.90
2018-10-17T08:29:22.039Z,99.90
2018-10-17T08:31:50.460Z,99.90
2018-10-17T08:34:18.833Z,99.90
2018-10-17T08:36:47.560Z,99.90
2018-10-17T08:39:15.635Z,99.90
2018-10-17T08:41:43.973Z,99.90
2018-10-17T08:44:12.439Z,99.90
2018-10-17T08:46:40.729Z,99.90
2018-10-17T08:49:09.102Z,99.90
2018-10-17T08:51:37.511Z,99.90
2018-10-17T08:54:05.879Z,99.90
2018-10-17T08:56:34.325Z,99.90
2018-10-17T08:59:02.682Z,99.90
2018-10-17T09:01:31.085Z,99.90
2018-10-17T09:03:59.458Z,99.90
2018-10-17T09:06:27.854Z,99.90
2018-10-17T09:08:56.234Z,99.90
2018-10-17T09:11:24.617Z,99.90
2018-10-17T09:13:52.974Z,99.90
2018-10-17T09:16:21.414Z,99.90
2018-10-17T09:18:49.673Z,99.90
2018-10-17T09:21:18.552Z,99.90
2018-10-17T09:23:46.458Z,99.90
2018-10-17T09:26:14.953Z,99.90
2018-10-17T09:28:43.327Z,99.90
2018-10-17T09:31:11.662Z,99.90
2018-10-17T09:33:40.045Z,99.90
2018-10-17T09:36:08.473Z,99.90
2018-10-17T09:38:36.817Z,99.90
2018-10-17T09:41:05.210Z,99.90
2018-10-17T09:43:33.536Z,99.90
2018-10-17T09:46:01.930Z,99.90
2018-10-17T09:48:30.321Z,99.90
2018-10-17T09:50:58.697Z,99.90
2018-10-17T09:53:27.154Z,99.90
2018-10-17T09:55:55.636Z,99.90
2018-10-17T09:58:25.107Z,98.30
2018-10-17T10:00:58.590Z,98.40
2018-10-17T10:03:27.047Z,98.10
2018-10-17T10:05:55.527Z,98.40
2018-10-17T10:08:23.842Z,96.90
2018-10-17T10:10:52.316Z,97.90
2018-10-17T10:13:20.650Z,97.90
2018-10-17T10:15:48.998Z,97.90
2018-10-17T10:18:17.378Z,97.50
2018-10-17T10:20:45.781Z,98.70
2018-10-17T10:23:14.189Z,97.30
2018-10-17T10:25:42.524Z,96.30
2018-10-17T10:28:10.923Z,97.20
2018-10-17T10:30:39.278Z,97.00
2018-10-17T10:33:07.663Z,95.30
2018-10-17T10:35:36.047Z,96.60
2018-10-17T10:38:04.399Z,95.00
2018-10-17T10:40:32.825Z,95.90
2018-10-17T10:43:01.512Z,94.70
2018-10-17T10:45:29.899Z,94.60
2018-10-17T10:47:58.275Z,95.60
2018-10-17T10:50:26.582Z,95.50
2018-10-17T10:52:54.920Z,95.60
2018-10-17T10:55:23.346Z,93.40
2018-10-17T10:57:51.738Z,93.20
2018-10-17T11:00:20.228Z,93.40
2018-10-17T11:02:48.429Z,92.20
2018-10-17T11:05:16.874Z,93.20
2018-10-17T11:07:45.240Z,92.50
2018-10-17T11:10:13.575Z,91.90
2018-10-17T11:12:41.891Z,93.40
2018-10-17T11:15:10.498Z,93.80
2018-10-17T11:17:38.862Z,92.10
2018-10-17T11:20:07.933Z,92.70
2018-10-17T11:22:36.341Z,91.50
2018-10-17T11:25:05.233Z,90.50
2018-10-17T11:27:33.613Z,88.70
2018-10-17T11:30:01.992Z,90.20
2018-10-17T11:32:30.328Z,87.30
2018-10-17T11:34:59.150Z,84.40
2018-10-17T11:37:27.789Z,83.80
2018-10-17T11:39:56.095Z,83.90
2018-10-17T11:42:24.484Z,84.00
2018-10-17T11:44:52.883Z,84.10
2018-10-17T11:47:21.262Z,85.00
2018-10-17T11:49:49.736Z,85.00
2018-10-17T11:52:18.349Z,85.20
2018-10-17T11:54:46.790Z,87.30
2018-10-17T11:57:15.402Z,83.20
2018-10-17T11:59:43.674Z,84.80
2018-10-17T12:02:12.033Z,83.00
2018-10-17T12:04:40.756Z,83.50
2018-10-17T12:07:08.825Z,83.20
2018-10-17T12:09:37.164Z,78.40
2018-10-17T12:12:05.611Z,83.80
2018-10-17T12:14:33.953Z,79.70
2018-10-17T12:17:02.376Z,80.90
2018-10-17T12:19:30.742Z,81.80
2018-10-17T12:21:59.100Z,81.90
2018-10-17T12:24:27.493Z,79.50
2018-10-17T12:26:55.916Z,83.10
2018-10-17T12:29:24.341Z,79.10
2018-10-17T12:31:52.750Z,78.60
2018-10-17T12:34:21.316Z,78.20
2018-10-17T12:36:49.570Z,78.10
2018-10-17T12:39:17.969Z,77.60
2018-10-17T12:41:46.406Z,79.50
2018-10-17T12:44:14.724Z,82.70
2018-10-17T12:46:43.058Z,78.00
2018-10-17T12:49:11.466Z,77.30
2018-10-17T12:51:39.876Z,80.70
2018-10-17T12:54:08.254Z,80.20
2018-10-17T12:56:36.753Z,80.10
2018-10-17T12:59:05.616Z,81.50
2018-10-17T13:01:33.890Z,78.70
2018-10-17T13:04:02.439Z,80.10
2018-10-17T13:06:30.787Z,80.00
2018-10-17T13:08:59.224Z,80.10
2018-10-17T13:11:27.704Z,80.90
2018-10-17T13:13:56.169Z,79.90
2018-10-17T13:16:24.540Z,79.90
2018-10-17T13:18:52.881Z,79.50
2018-10-17T13:21:21.268Z,78.80
2018-10-17T13:23:49.609Z,79.30
2018-10-17T13:26:17.960Z,78.30
2018-10-17T13:28:46.321Z,78.50
2018-10-17T13:31:14.783Z,78.10
2018-10-17T13:33:43.100Z,77.90
2018-10-17T13:36:11.454Z,76.80
2018-10-17T13:38:39.831Z,77.60
2018-10-17T13:41:08.260Z,77.60
2018-10-17T13:43:36.536Z,76.10
2018-10-17T13:46:05.047Z,75.60
2018-10-17T13:48:33.366Z,75.70
2018-10-17T13:51:01.759Z,75.50
2018-10-17T13:53:30.093Z,74.70
2018-10-17T13:55:58.496Z,75.80
2018-10-17T13:58:27.464Z,74.60
2018-10-17T14:00:55.832Z,75.40
2018-10-17T14:03:24.157Z,75.80
2018-10-17T14:05:52.572Z,76.90
2018-10-17T14:08:20.926Z,76.20
2018-10-17T14:10:49.318Z,77.00
2018-10-17T14:13:17.791Z,77.80
2018-10-17T14:15:46.129Z,77.20
2018-10-17T14:18:14.553Z,77.50
2018-10-17T14:20:42.832Z,77.80
2018-10-17T14:23:11.277Z,78.40
2018-10-17T14:25:39.684Z,78.20
2018-10-17T14:28:08.413Z,78.80
2018-10-17T14:30:36.821Z,79.90
2018-10-17T14:33:05.673Z,79.80
2018-10-17T14:35:34.073Z,78.90
2018-10-17T14:38:02.684Z,79.50
2018-10-17T14:40:30.860Z,79.30
2018-10-17T14:42:59.290Z,79.20
2018-10-17T14:45:27.689Z,79.20
2018-10-17T14:47:56.109Z,79.70
2018-10-17T14:50:24.407Z,78.60
2018-10-17T14:52:52.776Z,78.80
2018-10-17T14:55:21.119Z,78.40
2018-10-17T14:57:49.489Z,79.70
2018-10-17T15:00:17.859Z,78.00
2018-10-17T15:02:46.318Z,77.80
2018-10-17T15:05:14.737Z,76.70
2018-10-17T15:07:43.430Z,78.50
2018-10-17T15:10:11.769Z,78.90
2018-10-17T15:12:40.162Z,78.70
2018-10-17T15:15:09.963Z,79.60
2018-10-17T15:17:38.199Z,80.00
2018-10-17T15:20:06.889Z,79.00
2018-10-17T15:22:35.285Z,78.70
2018-10-17T15:25:03.671Z,78.10
2018-10-17T15:27:32.048Z,78.20
2018-10-17T15:30:00.432Z,78.30
2018-10-17T15:32:28.797Z,78.60
2018-10-17T15:34:57.161Z,79.00
2018-10-17T15:37:25.556Z,79.50
2018-10-17T15:39:54.084Z,81.40
2018-10-17T15:42:22.497Z,83.60
2018-10-17T15:44:51.014Z,82.10
2018-10-17T15:47:19.472Z,82.30
2018-10-17T15:49:47.943Z,82.20
2018-10-17T15:52:16.396Z,84.30
2018-10-17T15:54:44.795Z,85.10
2018-10-17T15:57:13.300Z,83.60
2018-10-17T15:59:41.648Z,87.00
2018-10-17T16:02:10.044Z,85.40
2018-10-17T16:04:38.376Z,86.20
2018-10-17T16:07:06.762Z,84.90
2018-10-17T16:09:35.833Z,85.20
2018-10-17T16:12:04.228Z,85.70
2018-10-17T16:14:32.596Z,85.40
2018-10-17T16:17:01.182Z,85.90
2018-10-17T16:19:29.542Z,86.40
2018-10-17T16:21:58.120Z,87.10
2018-10-17T16:24:26.509Z,87.10
2018-10-17T16:26:54.940Z,87.10
2018-10-17T16:29:23.319Z,87.00
2018-10-17T16:31:51.656Z,87.00
2018-10-17T16:34:19.993Z,87.20
2018-10-17T16:36:48.418Z,87.10
2018-10-17T16:39:16.820Z,88.10
2018-10-17T16:41:45.248Z,87.60
2018-10-17T16:44:13.637Z,89.20
2018-10-17T16:46:42.030Z,89.70
2018-10-17T16:49:10.420Z,90.10
2018-10-17T16:51:38.788Z,90.30
2018-10-17T16:54:07.175Z,90.50
2018-10-17T16:56:35.629Z,90.80
2018-10-17T16:59:03.965Z,91.10
2018-10-17T17:01:32.443Z,91.20
2018-10-17T17:04:00.811Z,91.40
2018-10-17T17:06:29.214Z,91.40
2018-10-17T17:08:57.606Z,91.60
2018-10-17T17:11:26.200Z,91.80
2018-10-17T17:13:54.590Z,92.10
2018-10-17T17:16:23.133Z,92.20
2018-10-17T17:18:51.524Z,92.90
2018-10-17T17:21:20.029Z,93.90
2018-10-17T17:23:48.325Z,94.40
2018-10-17T17:26:16.751Z,95.10
2018-10-17T17:28:45.159Z,95.50
2018-10-17T17:31:13.507Z,95.60
2018-10-17T17:33:42.197Z,95.80
2018-10-17T17:36:10.576Z,96.00
2018-10-17T17:38:38.923Z,95.80
2018-10-17T17:41:07.304Z,96.00
2018-10-17T17:43:35.685Z,96.10
2018-10-17T17:46:04.220Z,96.30
2018-10-17T17:48:32.479Z,96.20
2018-10-17T17:51:00.884Z,96.40
2018-10-17T17:53:29.240Z,96.50
2018-10-17T17:55:57.621Z,96.60
2018-10-17T17:58:26.516Z,97.00
2018-10-17T18:00:54.778Z,97.30
2018-10-17T18:03:23.190Z,97.50
2018-10-17T18:05:51.540Z,98.10
2018-10-17T18:08:20.013Z,98.70
2018-10-17T18:10:48.483Z,98.90
2018-10-17T18:13:16.808Z,99.00
2018-10-17T18:15:46.254Z,99.80
2018-10-17T18:18:15.059Z,99.90
2018-10-17T18:20:43.561Z,99.90
2018-10-17T18:23:12.104Z,99.90
2018-10-17T18:25:40.679Z,99.90
2018-10-17T18:28:09.125Z,99.90
2018-10-17T18:30:37.461Z,99.90
2018-10-17T18:33:05.847Z,99.90
2018-10-17T18:35:34.186Z,99.90
2018-10-17T18:38:02.536Z,99.90
2018-10-17T18:40:30.960Z,99.90
2018-10-17T18:42:59.282Z,99.90
2018-10-17T18:45:27.704Z,99.90
2018-10-17T18:47:56.232Z,99.90
2018-10-17T18:50:24.410Z,99.90
2018-10-17T18:52:52.784Z,99.90
2018-10-17T18:55:21.151Z,99.90
2018-10-17T18:57:49.582Z,99.90
2018-10-17T19:00:18.003Z,99.90
2018-10-17T19:02:46.375Z,99.90
2018-10-17T19:05:14.801Z,99.90
2018-10-17T19:07:43.135Z,99.90
2018-10-17T19:10:11.503Z,99.90
2018-10-17T19:12:39.874Z,99.90
2018-10-17T19:15:08.287Z,99.90
2018-10-17T19:17:36.744Z,99.90
2018-10-17T19:20:05.464Z,99.90
2018-10-17T19:22:33.799Z,99.90
2018-10-17T19:25:02.220Z,99.90
2018-10-17T19:27:30.632Z,99.90
2018-10-17T19:29:59.226Z,99.90
2018-10-17T19:32:27.540Z,99.90
2018-10-17T19:34:55.963Z,99.90
2018-10-17T19:37:24.314Z,99.90
2018-10-17T19:39:52.658Z,99.90
2018-10-17T19:42:21.057Z,99.90
2018-10-17T19:44:49.482Z,99.90
2018-10-17T19:47:17.885Z,99.90
2018-10-17T19:49:46.284Z,99.90
2018-10-17T19:52:14.648Z,99.90
2018-10-17T19:54:43.045Z,99.90
2018-10-17T19:57:11.659Z,99.90
2018-10-17T19:59:39.989Z,99.90
2018-10-17T20:02:08.415Z,99.90
2018-10-17T20:04:36.796Z,99.90
2018-10-17T20:07:05.683Z,99.90
2018-10-17T20:09:34.064Z,99.90
2018-10-17T20:12:02.419Z,99.90
2018-10-17T20:14:30.850Z,99.90
2018-10-17T20:16:59.255Z,99.90
2018-10-17T20:19:27.673Z,99.90
2018-10-17T20:21:56.106Z,99.90
2018-10-17T20:24:24.456Z,99.90
2018-10-17T20:26:52.808Z,99.90
2018-10-17T20:29:21.350Z,99.90
2018-10-17T20:31:49.904Z,99.90
2018-10-17T20:34:18.366Z,99.90
2018-10-17T20:36:46.797Z,99.90
2018-10-17T20:39:15.464Z,99.90
2018-10-17T20:41:43.857Z,99.90
2018-10-17T20:44:13.268Z,99.90
2018-10-17T20:46:41.943Z,99.90
2018-10-17T20:49:10.681Z,99.90
2018-10-17T20:51:39.101Z,99.90
2018-10-17T20:54:07.782Z,99.90
2018-10-17T20:56:36.149Z,99.90
2018-10-17T20:59:04.907Z,99.90
2018-10-17T21:01:33.344Z,99.90
2018-10-17T21:04:01.861Z,99.90
2018-10-17T21:06:30.225Z,99.90
2018-10-17T21:08:58.560Z,99.90
2018-10-17T21:11:26.972Z,99.90
2018-10-17T21:13:55.308Z,99.90
2018-10-17T21:16:23.626Z,99.90
2018-10-17T21:18:52.017Z,99.90
2018-10-17T21:21:20.470Z,99.90
2018-10-17T21:23:48.817Z,99.90
2018-10-17T21:26:17.181Z,99.90
2018-10-17T21:28:45.551Z,99.90
2018-10-17T21:31:13.866Z,99.90
2018-10-17T21:33:42.201Z,99.90
2018-10-17T21:36:10.540Z,99.90
2018-10-17T21:38:38.891Z,99.90
2018-10-17T21:41:07.245Z,99.90
2018-10-17T21:43:35.558Z,99.90
2018-10-17T21:46:03.908Z,99.90
2018-10-17T21:48:32.251Z,99.90
2018-10-17T21:51:00.589Z,99.90
2018-10-17T21:53:29.413Z,99.90
2018-10-17T21:55:57.883Z,99.90
2018-10-17T21:58:26.225Z,99.90
2018-10-17T22:00:54.552Z,99.90
2018-10-17T22:03:22.856Z,99.90
2018-10-17T22:05:51.261Z,99.90
2018-10-17T22:08:19.648Z,99.90
2018-10-17T22:10:48.027Z,99.90
2018-10-17T22:13:16.372Z,99.90
2018-10-17T22:15:44.752Z,99.90
2018-10-17T22:18:13.084Z,99.90
2018-10-17T22:20:41.552Z,99.90
2018-10-17T22:23:09.894Z,99.90
2018-10-17T22:25:38.204Z,99.90
2018-10-17T22:28:06.555Z,99.90
2018-10-17T22:30:34.928Z,99.90
2018-10-17T22:33:03.337Z,99.90
2018-10-17T22:35:31.777Z,99.90
2018-10-17T22:38:00.135Z,99.90
2018-10-17T22:40:28.463Z,99.90
2018-10-17T22:42:56.833Z,99.90
2018-10-17T22:45:25.169Z,99.90
2018-10-17T22:47:53.607Z,99.90
2018-10-17T22:50:21.948Z,99.90
2018-10-17T22:52:50.351Z,99.90
2018-10-17T22:55:18.787Z,99.90
2018-10-17T22:57:47.084Z,99.90
2018-10-17T23:00:15.542Z,99.90
2018-10-17T23:02:43.888Z,99.90
2018-10-17T23:05:12.358Z,99.90
2018-10-17T23:07:40.702Z,99.90
2018-10-17T23:10:09.047Z,99.90
2018-10-17T23:12:37.382Z,99.90
2018-10-17T23:15:09.807Z,99.90
2018-10-17T23:17:38.184Z,99.90
2018-10-17T23:20:06.539Z,99.90
2018-10-17T23:22:34.870Z,99.90
2018-10-17T23:25:03.182Z,99.90
2018-10-17T23:27:31.546Z,99.90
2018-10-17T23:29:59.917Z,99.90
2018-10-17T23:32:28.274Z,99.90
2018-10-17T23:34:56.625Z,99.90
2018-10-17T23:37:24.961Z,99.90
2018-10-17T23:39:53.326Z,99.90
2018-10-17T23:42:21.630Z,99.90
2018-10-17T23:44:49.985Z,99.90
2018-10-17T23:47:18.281Z,99.90
2018-10-17T23:49:46.712Z,99.90
2018-10-17T23:52:15.117Z,99.90
2018-10-17T23:54:43.492Z,99.90
2018-10-17T23:57:11.852Z,99.90
2018-10-17T23:59:40.166Z,99.90
